createdAt,value
2023-03-16T00:01:21.406Z,75.23
2023-03-16T00:03:50.476Z,75.90
2023-03-16T00:06:21.106Z,75.99
2023-03-16T00:08:49.989Z,76.41
2023-03-16T00:11:19.280Z,75.78
2023-03-16T00:13:48.306Z,76.19
2023-03-16T00:16:17.641Z,75.83
2023-03-16T00:18:46.895Z,77.25
2023-03-16T00:21:16.375Z,75.60
2023-03-16T00:23:47.091Z,74.56
2023-03-16T00:26:16.474Z,74.90
2023-03-16T00:28:45.474Z,75.17
2023-03-16T00:31:15.129Z,75.65
2023-03-16T00:33:44.752Z,75.67
2023-03-16T00:36:14.641Z,76.68
2023-03-16T00:38:45.618Z,75.81
2023-03-16T00:41:17.399Z,75.19
2023-03-16T00:43:48.995Z,75.66
2023-03-16T00:46:19.146Z,77.56
2023-03-16T00:48:49.571Z,77.98
2023-03-16T00:51:20.354Z,76.91
2023-03-16T00:53:49.827Z,78.35
2023-03-16T00:56:20.552Z,76.38
2023-03-16T00:58:50.216Z,77.00
2023-03-16T01:01:21.161Z,76.85
2023-03-16T01:03:50.542Z,76.96
2023-03-16T01:06:22.193Z,76.37
2023-03-16T01:08:52.398Z,75.63
2023-03-16T01:11:24.197Z,75.72
2023-03-16T01:13:55.257Z,76.05
2023-03-16T01:16:25.625Z,76.77
2023-03-16T01:18:56.194Z,77.87
2023-03-16T01:21:25.841Z,78.80
2023-03-16T01:23:55.184Z,78.18
2023-03-16T01:26:26.320Z,77.07
2023-03-16T01:28:55.672Z,77.20
2023-03-16T01:31:25.561Z,76.71
2023-03-16T01:33:54.690Z,78.03
2023-03-16T01:36:27.734Z,78.05
2023-03-16T01:39:04.170Z,78.40
2023-03-16T01:41:40.104Z,77.87
2023-03-16T01:44:12.046Z,77.17
2023-03-16T01:46:43.749Z,78.23
2023-03-16T01:49:16.087Z,77.77
2023-03-16T01:51:51.578Z,78.03
2023-03-16T01:54:26.624Z,76.57
2023-03-16T01:57:05.951Z,77.02
2023-03-16T01:59:39.120Z,77.72
2023-03-16T02:02:09.320Z,77.41
2023-03-16T02:04:49.345Z,78.19
2023-03-16T02:07:25.250Z,79.95
2023-03-16T02:09:58.783Z,81.22
2023-03-16T02:12:30.232Z,81.95
2023-03-16T02:15:01.837Z,80.76
2023-03-16T02:17:35.155Z,81.63
2023-03-16T02:20:23.805Z,81.43
2023-03-16T02:22:55.353Z,81.30
2023-03-16T02:25:27.662Z,79.82
2023-03-16T02:28:06.990Z,80.11
2023-03-16T02:30:42.684Z,79.47
2023-03-16T02:33:12.806Z,79.02
2023-03-16T02:35:41.899Z,81.04
2023-03-16T02:38:11.223Z,81.82
2023-03-16T02:40:58.245Z,80.91
2023-03-16T02:43:33.334Z,81.71
2023-03-16T02:46:27.913Z,81.91
2023-03-16T02:49:03.002Z,81.08
2023-03-16T02:51:33.147Z,82.55
2023-03-16T02:54:02.284Z,81.04
2023-03-16T02:56:33.746Z,80.86
2023-03-16T02:59:03.174Z,80.03
2023-03-16T03:01:34.944Z,80.52
2023-03-16T03:04:04.649Z,79.26
2023-03-16T03:06:34.491Z,80.11
2023-03-16T03:09:04.944Z,81.43
2023-03-16T03:11:34.330Z,80.94
2023-03-16T03:14:03.878Z,83.60
2023-03-16T03:16:34.650Z,82.50
2023-03-16T03:19:04.184Z,81.50
2023-03-16T03:21:37.675Z,82.92
2023-03-16T03:24:08.060Z,81.21
2023-03-16T03:26:37.950Z,80.60
2023-03-16T03:29:09.450Z,80.79
2023-03-16T03:31:40.200Z,80.64
2023-03-16T03:34:09.796Z,81.52
2023-03-16T03:36:38.819Z,80.12
2023-03-16T03:39:09.166Z,80.65
2023-03-16T03:41:38.456Z,83.08
2023-03-16T03:44:09.648Z,84.55
2023-03-16T03:46:41.420Z,83.71
2023-03-16T03:49:11.228Z,83.60
2023-03-16T03:51:41.108Z,82.64
2023-03-16T03:54:17.288Z,81.54
2023-03-16T03:56:54.896Z,82.63
2023-03-16T03:59:24.703Z,82.31
2023-03-16T04:02:14.606Z,81.55
2023-03-16T04:04:52.458Z,82.20
2023-03-16T04:07:21.475Z,82.67
2023-03-16T04:09:53.176Z,84.85
2023-03-16T04:12:30.966Z,84.52
2023-03-16T04:15:00.724Z,83.01
2023-03-16T04:17:37.528Z,81.60
2023-03-16T04:20:15.014Z,81.89
2023-03-16T04:22:47.672Z,82.15
2023-03-16T04:25:19.570Z,83.78
2023-03-16T04:27:51.492Z,85.21
2023-03-16T04:30:23.384Z,86.99
2023-03-16T04:32:57.547Z,87.66
2023-03-16T04:35:27.167Z,87.45
2023-03-16T04:37:59.112Z,86.93
2023-03-16T04:40:38.236Z,87.45
2023-03-16T04:43:16.106Z,87.77
2023-03-16T04:45:45.881Z,87.89
2023-03-16T04:48:16.517Z,89.06
2023-03-16T04:50:46.928Z,89.04
2023-03-16T04:53:15.978Z,89.11
2023-03-16T04:55:47.297Z,89.14
2023-03-16T04:58:16.509Z,88.92
2023-03-16T05:00:45.914Z,88.04
2023-03-16T05:03:29.610Z,86.18
2023-03-16T05:05:58.996Z,85.87
2023-03-16T05:08:30.276Z,86.59
2023-03-16T05:11:00.487Z,86.21
2023-03-16T05:13:34.007Z,85.62
2023-03-16T05:16:03.479Z,85.10
2023-03-16T05:18:37.886Z,84.66
2023-03-16T05:21:07.773Z,84.67
2023-03-16T05:23:50.025Z,84.65
2023-03-16T05:26:19.628Z,86.18
2023-03-16T05:28:49.113Z,85.56
2023-03-16T05:31:20.882Z,84.68
2023-03-16T05:33:56.175Z,84.54
2023-03-16T05:36:25.932Z,85.08
2023-03-16T05:38:59.346Z,85.07
2023-03-16T05:41:38.922Z,85.21
2023-03-16T05:44:18.516Z,84.54
2023-03-16T05:47:06.974Z,87.32
2023-03-16T05:49:41.590Z,87.86
2023-03-16T05:52:17.812Z,86.76
2023-03-16T05:54:46.856Z,85.79
2023-03-16T05:57:16.660Z,85.57
2023-03-16T05:59:48.738Z,87.32
2023-03-16T06:02:18.569Z,87.51
2023-03-16T06:04:49.276Z,87.39
2023-03-16T06:07:18.756Z,86.98
2023-03-16T06:09:48.197Z,86.86
2023-03-16T06:12:18.915Z,87.86
2023-03-16T06:14:48.213Z,86.11
2023-03-16T06:17:18.062Z,85.48
2023-03-16T06:19:49.523Z,86.82
2023-03-16T06:22:20.143Z,86.99
2023-03-16T06:24:49.273Z,87.31
2023-03-16T06:27:20.318Z,86.94
2023-03-16T06:30:07.504Z,86.89
2023-03-16T06:32:38.022Z,87.23
2023-03-16T06:35:09.627Z,87.20
2023-03-16T06:37:42.254Z,87.17
2023-03-16T06:40:39.456Z,86.90
2023-03-16T06:43:08.892Z,85.59
2023-03-16T06:45:37.988Z,85.89
2023-03-16T06:48:09.870Z,85.23
2023-03-16T06:50:40.674Z,85.82
2023-03-16T06:53:10.171Z,85.19
2023-03-16T06:55:39.514Z,86.18
2023-03-16T06:58:08.906Z,86.18
2023-03-16T07:00:38.317Z,85.48
2023-03-16T07:03:08.195Z,85.74
2023-03-16T07:05:58.560Z,85.98
2023-03-16T07:08:28.536Z,85.45
2023-03-16T07:10:58.488Z,85.67
2023-03-16T07:13:31.023Z,85.50
2023-03-16T07:16:01.280Z,85.73
2023-03-16T07:18:31.776Z,85.80
2023-03-16T07:21:02.561Z,85.10
2023-03-16T07:23:32.322Z,85.01
2023-03-16T07:26:08.277Z,84.49
2023-03-16T07:28:43.002Z,84.62
2023-03-16T07:31:13.051Z,84.62
2023-03-16T07:33:44.255Z,85.08
2023-03-16T07:36:19.762Z,84.00
2023-03-16T07:38:55.206Z,84.15
2023-03-16T07:41:25.520Z,84.79
2023-03-16T07:43:58.364Z,84.94
2023-03-16T07:46:28.793Z,84.49
2023-03-16T07:48:58.606Z,82.95
2023-03-16T07:51:31.316Z,82.61
2023-03-16T07:54:10.734Z,83.01
2023-03-16T07:56:48.820Z,81.99
2023-03-16T07:59:43.980Z,82.15
2023-03-16T08:02:18.411Z,82.53
2023-03-16T08:04:49.651Z,83.31
2023-03-16T08:07:20.372Z,82.62
2023-03-16T08:10:01.350Z,82.14
2023-03-16T08:12:37.090Z,82.17
2023-03-16T08:15:12.433Z,81.62
2023-03-16T08:17:42.916Z,81.39
2023-03-16T08:20:19.051Z,81.53
2023-03-16T08:22:51.374Z,81.47
2023-03-16T08:25:28.834Z,82.33
2023-03-16T08:28:09.441Z,82.24
2023-03-16T08:30:45.081Z,82.32
2023-03-16T08:33:26.001Z,80.93
2023-03-16T08:35:58.760Z,81.38
2023-03-16T08:38:29.649Z,81.17
2023-03-16T08:41:04.967Z,80.84
2023-03-16T08:43:37.646Z,81.73
2023-03-16T08:46:08.131Z,80.84
2023-03-16T08:48:52.481Z,80.76
2023-03-16T08:51:23.722Z,80.01
2023-03-16T08:53:56.617Z,80.06
2023-03-16T08:56:26.702Z,80.20
2023-03-16T08:58:57.565Z,81.03
2023-03-16T09:01:27.572Z,80.36
2023-03-16T09:03:58.059Z,80.66
2023-03-16T09:06:29.547Z,79.93
2023-03-16T09:09:00.316Z,80.00
2023-03-16T09:11:33.608Z,80.90
2023-03-16T09:14:04.183Z,80.20
2023-03-16T09:16:35.191Z,80.09
2023-03-16T09:19:04.544Z,80.18
2023-03-16T09:21:36.267Z,80.01
2023-03-16T09:24:08.905Z,79.13
2023-03-16T09:26:39.992Z,79.11
2023-03-16T09:29:09.382Z,79.80
2023-03-16T09:31:39.061Z,78.25
2023-03-16T09:34:09.466Z,77.72
2023-03-16T09:36:41.923Z,77.11
2023-03-16T09:39:13.413Z,77.08
2023-03-16T09:41:49.886Z,76.63
2023-03-16T09:44:43.685Z,76.87
2023-03-16T09:47:16.702Z,75.54
2023-03-16T09:49:49.482Z,75.85
2023-03-16T09:52:34.080Z,75.74
2023-03-16T09:55:13.241Z,74.75
2023-03-16T09:57:46.047Z,74.97
2023-03-16T10:00:21.071Z,74.10
2023-03-16T10:03:06.333Z,74.32
2023-03-16T10:05:37.325Z,74.10
2023-03-16T10:08:14.775Z,72.98
2023-03-16T10:11:12.048Z,72.47
2023-03-16T10:13:49.507Z,71.90
2023-03-16T10:16:22.556Z,72.26
2023-03-16T10:19:01.608Z,72.15
2023-03-16T10:21:39.544Z,72.10
2023-03-16T10:24:20.156Z,71.90
2023-03-16T10:27:00.170Z,72.27
2023-03-16T10:29:36.440Z,71.98
2023-03-16T10:32:14.940Z,71.80
2023-03-16T10:34:49.819Z,72.34
2023-03-16T10:37:19.395Z,71.86
2023-03-16T10:39:50.565Z,71.95
2023-03-16T10:42:22.461Z,71.71
2023-03-16T10:45:00.977Z,71.55
2023-03-16T10:47:33.312Z,71.84
2023-03-16T10:50:14.549Z,71.48
2023-03-16T10:52:49.675Z,71.65
2023-03-16T10:55:24.611Z,71.82
2023-03-16T10:57:57.232Z,71.70
2023-03-16T11:00:29.984Z,71.72
2023-03-16T11:03:02.601Z,71.63
2023-03-16T11:05:34.149Z,71.21
2023-03-16T11:08:10.741Z,71.15
2023-03-16T11:10:55.933Z,71.06
2023-03-16T11:13:34.528Z,70.67
2023-03-16T11:16:16.824Z,70.58
2023-03-16T11:18:51.656Z,71.04
2023-03-16T11:21:33.994Z,70.94
2023-03-16T11:24:05.629Z,71.06
2023-03-16T11:26:40.246Z,69.95
2023-03-16T11:29:20.268Z,70.28
2023-03-16T11:31:55.328Z,69.54
2023-03-16T11:34:29.237Z,70.25
2023-03-16T11:37:06.549Z,69.25
2023-03-16T11:39:44.765Z,69.29
2023-03-16T11:42:28.463Z,68.63
2023-03-16T11:45:15.319Z,67.86
2023-03-16T11:48:12.549Z,66.88
2023-03-16T11:50:54.459Z,68.12
2023-03-16T11:53:43.979Z,67.80
2023-03-16T11:56:22.420Z,67.69
2023-03-16T11:59:22.730Z,67.29
2023-03-16T12:02:14.491Z,66.82
2023-03-16T12:04:57.434Z,67.16
2023-03-16T12:07:42.947Z,66.58
2023-03-16T12:10:26.636Z,65.73
2023-03-16T12:13:07.754Z,66.32
2023-03-16T12:15:44.831Z,66.50
2023-03-16T12:18:19.384Z,65.14
2023-03-16T12:20:54.730Z,66.38
2023-03-16T12:23:31.191Z,66.74
2023-03-16T12:26:01.798Z,65.73
2023-03-16T12:28:33.547Z,65.76
2023-03-16T12:31:12.204Z,66.51
2023-03-16T12:33:54.989Z,68.00
2023-03-16T12:36:57.702Z,70.05
2023-03-16T12:39:50.144Z,71.50
2023-03-16T12:42:37.322Z,72.47
2023-03-16T12:45:13.340Z,73.70
2023-03-16T12:47:58.545Z,73.30
2023-03-16T12:50:29.490Z,74.25
2023-03-16T12:52:59.732Z,76.00
2023-03-16T12:55:45.548Z,78.49
2023-03-16T12:58:18.288Z,76.91
2023-03-16T13:00:59.298Z,77.13
2023-03-16T13:03:31.279Z,78.16
2023-03-16T13:06:03.563Z,78.77
2023-03-16T13:08:48.265Z,78.21
2023-03-16T13:11:21.130Z,80.05
2023-03-16T13:13:54.191Z,79.63
2023-03-16T13:16:37.545Z,79.60
2023-03-16T13:19:27.278Z,79.26
2023-03-16T13:22:07.332Z,79.55
2023-03-16T13:24:41.172Z,79.73
2023-03-16T13:27:25.184Z,80.10
2023-03-16T13:29:59.485Z,80.81
2023-03-16T13:32:33.917Z,80.71
2023-03-16T13:35:15.450Z,80.26
2023-03-16T13:37:47.309Z,79.34
2023-03-16T13:40:20.926Z,78.52
2023-03-16T13:42:53.114Z,78.46
2023-03-16T13:45:30.336Z,79.31
2023-03-16T13:48:03.347Z,79.55
2023-03-16T13:50:35.360Z,79.94
2023-03-16T13:53:12.249Z,79.54
2023-03-16T13:55:45.433Z,79.05
2023-03-16T13:58:28.528Z,78.62
2023-03-16T14:01:01.705Z,77.10
2023-03-16T14:03:36.289Z,77.76
2023-03-16T14:06:07.084Z,77.80
2023-03-16T14:08:38.356Z,77.19
2023-03-16T14:11:07.933Z,76.56
2023-03-16T14:13:39.244Z,76.54
2023-03-16T14:16:16.663Z,75.73
2023-03-16T14:18:48.661Z,75.44
2023-03-16T14:21:22.014Z,74.50
2023-03-16T14:23:55.199Z,75.06
2023-03-16T14:26:25.107Z,75.55
2023-03-16T14:29:03.488Z,74.54
2023-03-16T14:31:38.369Z,74.01
2023-03-16T14:34:21.348Z,74.36
2023-03-16T14:36:51.139Z,74.73
2023-03-16T14:39:28.962Z,75.27
2023-03-16T14:41:58.347Z,75.69
2023-03-16T14:44:31.996Z,75.16
2023-03-16T14:47:02.853Z,74.94
2023-03-16T14:49:34.256Z,75.03
2023-03-16T14:52:07.351Z,75.04
2023-03-16T14:54:37.819Z,75.37
2023-03-16T14:57:07.739Z,75.60
2023-03-16T14:59:36.773Z,76.03
2023-03-16T15:02:17.112Z,76.97
2023-03-16T15:04:47.343Z,77.01
2023-03-16T15:07:25.985Z,76.49
2023-03-16T15:09:59.030Z,76.76
2023-03-16T15:12:28.433Z,75.91
2023-03-16T15:15:14.573Z,75.35
2023-03-16T15:17:44.629Z,75.32
2023-03-16T15:20:16.342Z,76.32
2023-03-16T15:22:46.883Z,76.96
2023-03-16T15:25:36.576Z,75.61
2023-03-16T15:28:13.614Z,75.75
2023-03-16T15:30:43.296Z,75.25
2023-03-16T15:33:15.216Z,75.59
2023-03-16T15:35:45.630Z,74.39
2023-03-16T15:38:18.105Z,74.82
2023-03-16T15:40:51.399Z,75.98
2023-03-16T15:43:23.648Z,75.04
2023-03-16T15:45:54.339Z,74.95
2023-03-16T15:48:25.522Z,74.98
2023-03-16T15:50:58.670Z,75.10
2023-03-16T15:53:33.578Z,74.22
2023-03-16T15:56:08.317Z,74.98
2023-03-16T15:58:39.079Z,75.11
2023-03-16T16:01:08.951Z,75.41
2023-03-16T16:03:39.123Z,75.26
2023-03-16T16:06:12.836Z,75.18
2023-03-16T16:08:42.214Z,75.50
2023-03-16T16:11:16.798Z,75.60
2023-03-16T16:13:48.107Z,76.06
2023-03-16T16:16:20.004Z,75.70
2023-03-16T16:18:49.926Z,74.54
2023-03-16T16:21:23.174Z,74.76
2023-03-16T16:23:54.209Z,74.34
2023-03-16T16:26:46.903Z,74.42
2023-03-16T16:29:18.152Z,74.68
2023-03-16T16:31:47.371Z,75.42
2023-03-16T16:34:18.876Z,75.31
2023-03-16T16:36:48.018Z,76.23
2023-03-16T16:39:17.615Z,76.07
2023-03-16T16:41:49.568Z,75.56
2023-03-16T16:44:23.454Z,75.59
2023-03-16T16:46:53.570Z,75.53
2023-03-16T16:49:23.827Z,74.82
2023-03-16T16:51:53.368Z,75.88
2023-03-16T16:54:24.358Z,75.48
2023-03-16T16:56:57.162Z,76.30
2023-03-16T16:59:30.137Z,76.31
2023-03-16T17:01:59.590Z,75.52
2023-03-16T17:04:30.902Z,75.31
2023-03-16T17:07:02.702Z,75.22
2023-03-16T17:09:32.443Z,75.65
2023-03-16T17:12:03.241Z,75.62
2023-03-16T17:14:32.954Z,75.53
2023-03-16T17:17:03.728Z,76.09
2023-03-16T17:19:33.324Z,75.69
2023-03-16T17:22:02.523Z,75.67
2023-03-16T17:24:32.515Z,75.47
2023-03-16T17:27:04.529Z,75.54
2023-03-16T17:29:35.841Z,75.40
2023-03-16T17:32:17.524Z,76.79
2023-03-16T17:34:47.707Z,76.35
2023-03-16T17:37:19.888Z,76.34
2023-03-16T17:39:49.288Z,76.06
2023-03-16T17:42:23.155Z,76.35
2023-03-16T17:44:54.618Z,76.61
2023-03-16T17:47:25.068Z,77.66
2023-03-16T17:49:55.329Z,77.13
2023-03-16T17:52:26.335Z,76.14
2023-03-16T17:54:56.602Z,76.51
2023-03-16T17:57:29.843Z,76.21
2023-03-16T18:00:00.970Z,76.21
2023-03-16T18:02:43.637Z,76.61
2023-03-16T18:05:19.695Z,76.46
2023-03-16T18:07:49.533Z,76.51
2023-03-16T18:10:20.944Z,77.95
2023-03-16T18:12:57.072Z,77.16
2023-03-16T18:15:31.580Z,76.87
2023-03-16T18:18:01.996Z,77.62
2023-03-16T18:20:36.004Z,77.10
2023-03-16T18:23:15.722Z,78.12
2023-03-16T18:25:45.975Z,79.68
2023-03-16T18:28:18.279Z,78.61
2023-03-16T18:30:52.004Z,77.66
2023-03-16T18:33:26.180Z,77.08
2023-03-16T18:35:58.746Z,76.91
2023-03-16T18:38:31.353Z,76.89
2023-03-16T18:41:02.625Z,76.74
2023-03-16T18:43:33.250Z,76.00
2023-03-16T18:46:03.063Z,77.29
2023-03-16T18:48:34.988Z,77.65
2023-03-16T18:51:05.191Z,77.89
2023-03-16T18:53:34.579Z,77.78
2023-03-16T18:56:04.372Z,77.50
2023-03-16T18:58:35.826Z,77.37
2023-03-16T19:01:06.608Z,76.79
2023-03-16T19:03:40.600Z,77.47
2023-03-16T19:06:16.995Z,77.63
2023-03-16T19:08:46.393Z,77.30
2023-03-16T19:11:18.163Z,76.90
2023-03-16T19:13:48.808Z,77.11
2023-03-16T19:16:20.123Z,77.48
2023-03-16T19:18:49.281Z,77.35
2023-03-16T19:21:21.629Z,77.69
2023-03-16T19:23:56.922Z,77.23
2023-03-16T19:26:26.876Z,76.48
2023-03-16T19:28:57.575Z,77.30
2023-03-16T19:31:29.481Z,78.14
2023-03-16T19:33:58.970Z,79.44
2023-03-16T19:36:31.261Z,78.74
2023-03-16T19:39:00.889Z,77.89
2023-03-16T19:41:32.856Z,78.29
2023-03-16T19:44:08.319Z,78.71
2023-03-16T19:46:38.100Z,77.79
2023-03-16T19:49:10.057Z,77.70
2023-03-16T19:51:39.459Z,77.44
2023-03-16T19:54:08.478Z,78.05
2023-03-16T19:56:38.281Z,77.82
2023-03-16T19:59:11.093Z,78.93
2023-03-16T20:01:40.803Z,79.06
2023-03-16T20:04:18.265Z,80.62
2023-03-16T20:06:50.027Z,80.26
2023-03-16T20:09:19.436Z,80.29
2023-03-16T20:11:49.957Z,81.09
2023-03-16T20:14:22.043Z,80.01
2023-03-16T20:16:51.678Z,78.65
2023-03-16T20:19:22.426Z,79.27
2023-03-16T20:21:52.088Z,80.00
2023-03-16T20:24:22.445Z,79.44
2023-03-16T20:26:54.032Z,79.60
2023-03-16T20:29:30.000Z,79.42
2023-03-16T20:32:00.771Z,78.91
2023-03-16T20:34:32.216Z,77.65
2023-03-16T20:37:01.988Z,77.73
2023-03-16T20:39:31.683Z,78.08
2023-03-16T20:42:01.044Z,77.31
2023-03-16T20:44:31.724Z,78.23
2023-03-16T20:47:01.204Z,77.89
2023-03-16T20:49:34.560Z,76.94
2023-03-16T20:52:04.139Z,78.29
2023-03-16T20:54:33.204Z,77.88
2023-03-16T20:57:02.552Z,77.89
2023-03-16T20:59:34.493Z,77.59
2023-03-16T21:02:08.630Z,78.12
2023-03-16T21:04:38.089Z,78.53
2023-03-16T21:07:09.820Z,77.71
2023-03-16T21:09:39.830Z,78.12
2023-03-16T21:12:15.334Z,78.23
2023-03-16T21:14:47.633Z,79.49
2023-03-16T21:17:26.857Z,80.06
2023-03-16T21:19:56.520Z,80.50
2023-03-16T21:22:28.126Z,78.92
2023-03-16T21:24:57.689Z,77.81
2023-03-16T21:27:29.805Z,80.46
2023-03-16T21:30:08.408Z,80.74
2023-03-16T21:32:38.032Z,79.36
2023-03-16T21:35:08.903Z,79.02
2023-03-16T21:37:38.369Z,80.25
2023-03-16T21:40:15.565Z,80.06
2023-03-16T21:42:45.875Z,80.43
2023-03-16T21:45:17.457Z,80.86
2023-03-16T21:47:47.888Z,81.25
2023-03-16T21:50:21.936Z,82.12
2023-03-16T21:52:51.665Z,81.72
2023-03-16T21:55:24.045Z,80.89
2023-03-16T21:57:54.845Z,80.00
2023-03-16T22:00:29.342Z,79.57
2023-03-16T22:03:01.066Z,79.29
2023-03-16T22:05:36.509Z,78.86
2023-03-16T22:08:14.601Z,78.66
2023-03-16T22:10:43.958Z,79.81
2023-03-16T22:13:13.818Z,79.22
2023-03-16T22:15:44.822Z,79.42
2023-03-16T22:18:26.576Z,78.27
2023-03-16T22:20:56.293Z,78.74
2023-03-16T22:23:31.798Z,79.47
2023-03-16T22:26:01.542Z,79.14
2023-03-16T22:28:31.583Z,78.79
2023-03-16T22:31:04.349Z,79.60
2023-03-16T22:33:37.654Z,79.27
2023-03-16T22:36:11.696Z,78.80
2023-03-16T22:38:42.549Z,78.93
2023-03-16T22:41:14.974Z,79.41
2023-03-16T22:43:45.928Z,80.86
2023-03-16T22:46:20.444Z,83.06
2023-03-16T22:48:49.949Z,81.22
2023-03-16T22:51:25.227Z,80.83
2023-03-16T22:53:58.243Z,82.02
2023-03-16T22:56:28.141Z,81.18
2023-03-16T22:58:59.923Z,80.38
2023-03-16T23:01:34.734Z,79.16
2023-03-16T23:04:04.234Z,79.50
2023-03-16T23:06:33.646Z,79.03
2023-03-16T23:09:03.669Z,78.83
2023-03-16T23:11:34.693Z,78.19
2023-03-16T23:14:05.210Z,78.25
2023-03-16T23:16:38.010Z,78.21
2023-03-16T23:19:29.958Z,78.50
2023-03-16T23:22:01.848Z,78.84
2023-03-16T23:24:31.324Z,81.09
2023-03-16T23:27:00.873Z,82.33
2023-03-16T23:29:30.919Z,82.97
2023-03-16T23:32:01.890Z,84.42
2023-03-16T23:34:31.315Z,85.58
2023-03-16T23:37:00.299Z,85.19
2023-03-16T23:39:29.741Z,86.41
2023-03-16T23:41:58.823Z,87.03
2023-03-16T23:44:30.177Z,84.73
2023-03-16T23:47:01.375Z,85.72
2023-03-16T23:49:33.799Z,85.73
2023-03-16T23:52:03.417Z,84.80
2023-03-16T23:54:34.001Z,84.01
2023-03-16T23:57:03.007Z,85.16
2023-03-16T23:59:33.117Z,84.55
